sensor_id;sensor_type;location;lat;lon;timestamp;P1;durP1;ratioP1;P2;durP2;ratioP2
74059;SDS011;62414;53.436;8.828;2023-05-07T00:00:45;21.02;;;10.90;;
74059;SDS011;62414;53.436;8.828;2023-05-07T00:03:12;22.33;;;10.87;;
74059;SDS011;62414;53.436;8.828;2023-05-07T00:05:37;22.85;;;11.60;;
74059;SDS011;62414;53.436;8.828;2023-05-07T00:08:03;24.27;;;11.33;;
74059;SDS011;62414;53.436;8.828;2023-05-07T00:10:29;24.77;;;11.07;;
74059;SDS011;62414;53.436;8.828;2023-05-07T00:12:54;23.67;;;11.83;;
74059;SDS011;62414;53.436;8.828;2023-05-07T00:15:20;20.83;;;10.80;;
74059;SDS011;62414;53.436;8.828;2023-05-07T00:17:45;21.65;;;10.95;;
74059;SDS011;62414;53.436;8.828;2023-05-07T00:20:12;23.83;;;11.03;;
74059;SDS011;62414;53.436;8.828;2023-05-07T00:22:38;23.38;;;11.32;;
74059;SDS011;62414;53.436;8.828;2023-05-07T00:25:03;24.00;;;11.70;;
74059;SDS011;62414;53.436;8.828;2023-05-07T00:27:29;23.92;;;11.27;;
74059;SDS011;62414;53.436;8.828;2023-05-07T00:29:55;22.23;;;11.17;;
74059;SDS011;62414;53.436;8.828;2023-05-07T00:32:20;21.30;;;11.13;;
74059;SDS011;62414;53.436;8.828;2023-05-07T00:34:46;21.55;;;11.38;;
74059;SDS011;62414;53.436;8.828;2023-05-07T00:37:12;23.00;;;11.40;;
74059;SDS011;62414;53.436;8.828;2023-05-07T00:39:38;22.40;;;11.02;;
74059;SDS011;62414;53.436;8.828;2023-05-07T00:42:03;22.67;;;11.97;;
74059;SDS011;62414;53.436;8.828;2023-05-07T00:44:29;23.80;;;11.37;;
74059;SDS011;62414;53.436;8.828;2023-05-07T00:46:55;23.20;;;11.68;;
74059;SDS011;62414;53.436;8.828;2023-05-07T00:49:20;24.60;;;11.75;;
74059;SDS011;62414;53.436;8.828;2023-05-07T00:51:46;22.23;;;11.60;;
74059;SDS011;62414;53.436;8.828;2023-05-07T00:54:13;21.73;;;11.33;;
74059;SDS011;62414;53.436;8.828;2023-05-07T00:56:39;23.90;;;11.57;;
74059;SDS011;62414;53.436;8.828;2023-05-07T00:59:04;23.65;;;12.00;;
74059;SDS011;62414;53.436;8.828;2023-05-07T01:01:30;23.67;;;11.43;;
74059;SDS011;62414;53.436;8.828;2023-05-07T01:03:56;24.70;;;11.53;;
74059;SDS011;62414;53.436;8.828;2023-05-07T01:06:22;21.80;;;11.20;;
74059;SDS011;62414;53.436;8.828;2023-05-07T01:08:48;26.25;;;12.15;;
74059;SDS011;62414;53.436;8.828;2023-05-07T01:11:16;23.77;;;11.57;;
74059;SDS011;62414;53.436;8.828;2023-05-07T01:13:42;24.13;;;11.48;;
74059;SDS011;62414;53.436;8.828;2023-05-07T01:16:08;21.85;;;11.40;;
74059;SDS011;62414;53.436;8.828;2023-05-07T01:18:34;23.75;;;11.07;;
74059;SDS011;62414;53.436;8.828;2023-05-07T01:21:00;22.70;;;11.50;;
74059;SDS011;62414;53.436;8.828;2023-05-07T01:23:28;24.13;;;10.93;;
74059;SDS011;62414;53.436;8.828;2023-05-07T01:25:55;24.75;;;11.15;;
74059;SDS011;62414;53.436;8.828;2023-05-07T01:28:22;21.70;;;10.95;;
74059;SDS011;62414;53.436;8.828;2023-05-07T01:30:49;24.90;;;11.53;;
74059;SDS011;62414;53.436;8.828;2023-05-07T01:33:18;24.15;;;11.30;;
74059;SDS011;62414;53.436;8.828;2023-05-07T01:35:45;22.38;;;11.38;;
74059;SDS011;62414;53.436;8.828;2023-05-07T01:38:11;23.63;;;11.52;;
74059;SDS011;62414;53.436;8.828;2023-05-07T01:40:38;22.13;;;10.73;;
74059;SDS011;62414;53.436;8.828;2023-05-07T01:43:04;22.17;;;10.73;;
74059;SDS011;62414;53.436;8.828;2023-05-07T01:45:32;24.80;;;11.60;;
74059;SDS011;62414;53.436;8.828;2023-05-07T01:47:57;25.50;;;12.77;;
74059;SDS011;62414;53.436;8.828;2023-05-07T01:50:23;26.05;;;12.55;;
74059;SDS011;62414;53.436;8.828;2023-05-07T01:52:50;25.40;;;12.55;;
74059;SDS011;62414;53.436;8.828;2023-05-07T01:55:15;24.80;;;12.25;;
74059;SDS011;62414;53.436;8.828;2023-05-07T01:57:42;25.73;;;12.03;;
74059;SDS011;62414;53.436;8.828;2023-05-07T02:00:08;22.80;;;11.68;;
74059;SDS011;62414;53.436;8.828;2023-05-07T02:02:40;23.73;;;11.40;;
74059;SDS011;62414;53.436;8.828;2023-05-07T02:05:10;22.98;;;11.35;;
74059;SDS011;62414;53.436;8.828;2023-05-07T02:07:37;24.20;;;10.97;;
74059;SDS011;62414;53.436;8.828;2023-05-07T02:10:03;23.33;;;10.88;;
74059;SDS011;62414;53.436;8.828;2023-05-07T02:12:28;22.95;;;10.50;;
74059;SDS011;62414;53.436;8.828;2023-05-07T02:14:55;22.53;;;10.53;;
74059;SDS011;62414;53.436;8.828;2023-05-07T02:17:21;23.85;;;10.85;;
74059;SDS011;62414;53.436;8.828;2023-05-07T02:19:46;21.33;;;10.50;;
74059;SDS011;62414;53.436;8.828;2023-05-07T02:22:12;19.97;;;9.83;;
74059;SDS011;62414;53.436;8.828;2023-05-07T02:24:37;22.88;;;11.13;;
74059;SDS011;62414;53.436;8.828;2023-05-07T02:27:03;21.27;;;10.13;;
74059;SDS011;62414;53.436;8.828;2023-05-07T02:29:29;22.27;;;9.98;;
74059;SDS011;62414;53.436;8.828;2023-05-07T02:31:56;22.50;;;10.30;;
74059;SDS011;62414;53.436;8.828;2023-05-07T02:34:21;21.27;;;9.67;;
74059;SDS011;62414;53.436;8.828;2023-05-07T02:36:47;21.70;;;9.90;;
74059;SDS011;62414;53.436;8.828;2023-05-07T02:39:16;17.73;;;9.05;;
74059;SDS011;62414;53.436;8.828;2023-05-07T02:41:41;23.83;;;10.07;;
74059;SDS011;62414;53.436;8.828;2023-05-07T02:44:07;22.10;;;10.07;;
74059;SDS011;62414;53.436;8.828;2023-05-07T02:46:33;20.53;;;9.40;;
74059;SDS011;62414;53.436;8.828;2023-05-07T02:49:04;21.13;;;9.98;;
74059;SDS011;62414;53.436;8.828;2023-05-07T02:51:29;21.15;;;9.80;;
74059;SDS011;62414;53.436;8.828;2023-05-07T02:53:57;20.08;;;9.27;;
74059;SDS011;62414;53.436;8.828;2023-05-07T02:56:25;21.20;;;10.23;;
74059;SDS011;62414;53.436;8.828;2023-05-07T02:58:51;21.35;;;10.07;;
74059;SDS011;62414;53.436;8.828;2023-05-07T03:01:18;19.13;;;9.65;;
74059;SDS011;62414;53.436;8.828;2023-05-07T03:03:56;21.98;;;9.57;;
74059;SDS011;62414;53.436;8.828;2023-05-07T03:06:23;20.63;;;9.67;;
74059;SDS011;62414;53.436;8.828;2023-05-07T03:08:49;21.98;;;10.38;;
74059;SDS011;62414;53.436;8.828;2023-05-07T03:11:14;19.87;;;9.43;;
74059;SDS011;62414;53.436;8.828;2023-05-07T03:13:40;19.73;;;9.18;;
74059;SDS011;62414;53.436;8.828;2023-05-07T03:16:06;20.33;;;9.10;;
74059;SDS011;62414;53.436;8.828;2023-05-07T03:18:31;18.48;;;8.25;;
74059;SDS011;62414;53.436;8.828;2023-05-07T03:20:57;17.53;;;8.47;;
74059;SDS011;62414;53.436;8.828;2023-05-07T03:23:24;16.97;;;8.33;;
74059;SDS011;62414;53.436;8.828;2023-05-07T03:25:49;17.10;;;8.05;;
74059;SDS011;62414;53.436;8.828;2023-05-07T03:28:15;16.95;;;7.93;;
74059;SDS011;62414;53.436;8.828;2023-05-07T03:30:49;15.00;;;7.13;;
74059;SDS011;62414;53.436;8.828;2023-05-07T03:33:14;15.18;;;7.85;;
74059;SDS011;62414;53.436;8.828;2023-05-07T03:35:40;15.73;;;7.93;;
74059;SDS011;62414;53.436;8.828;2023-05-07T03:38:06;17.00;;;7.60;;
74059;SDS011;62414;53.436;8.828;2023-05-07T03:40:35;16.48;;;8.27;;
74059;SDS011;62414;53.436;8.828;2023-05-07T03:43:02;15.43;;;7.60;;
74059;SDS011;62414;53.436;8.828;2023-05-07T03:45:30;16.00;;;7.57;;
74059;SDS011;62414;53.436;8.828;2023-05-07T03:48:07;14.45;;;7.18;;
74059;SDS011;62414;53.436;8.828;2023-05-07T03:50:33;14.17;;;7.20;;
74059;SDS011;62414;53.436;8.828;2023-05-07T03:52:58;16.40;;;8.07;;
74059;SDS011;62414;53.436;8.828;2023-05-07T03:55:24;15.77;;;7.47;;
74059;SDS011;62414;53.436;8.828;2023-05-07T03:57:56;14.02;;;7.38;;
74059;SDS011;62414;53.436;8.828;2023-05-07T04:00:24;15.80;;;7.80;;
74059;SDS011;62414;53.436;8.828;2023-05-07T04:02:49;15.27;;;7.57;;
74059;SDS011;62414;53.436;8.828;2023-05-07T04:05:21;16.13;;;7.78;;
74059;SDS011;62414;53.436;8.828;2023-05-07T04:07:50;17.13;;;8.10;;
74059;SDS011;62414;53.436;8.828;2023-05-07T04:10:20;16.83;;;7.60;;
74059;SDS011;62414;53.436;8.828;2023-05-07T04:12:48;15.73;;;7.90;;
74059;SDS011;62414;53.436;8.828;2023-05-07T04:15:19;15.52;;;8.23;;
74059;SDS011;62414;53.436;8.828;2023-05-07T04:17:45;16.27;;;7.55;;
74059;SDS011;62414;53.436;8.828;2023-05-07T04:20:13;15.77;;;7.70;;
74059;SDS011;62414;53.436;8.828;2023-05-07T04:22:40;15.57;;;7.78;;
74059;SDS011;62414;53.436;8.828;2023-05-07T04:25:06;16.60;;;7.90;;
74059;SDS011;62414;53.436;8.828;2023-05-07T04:27:34;16.17;;;8.10;;
74059;SDS011;62414;53.436;8.828;2023-05-07T04:29:59;17.27;;;7.83;;
74059;SDS011;62414;53.436;8.828;2023-05-07T04:32:26;16.17;;;7.67;;
74059;SDS011;62414;53.436;8.828;2023-05-07T04:34:52;15.27;;;7.50;;
74059;SDS011;62414;53.436;8.828;2023-05-07T04:37:17;17.42;;;8.13;;
74059;SDS011;62414;53.436;8.828;2023-05-07T04:39:43;16.07;;;8.00;;
74059;SDS011;62414;53.436;8.828;2023-05-07T04:42:09;17.02;;;8.40;;
74059;SDS011;62414;53.436;8.828;2023-05-07T04:44:34;16.17;;;7.60;;
74059;SDS011;62414;53.436;8.828;2023-05-07T04:47:00;15.50;;;7.43;;
74059;SDS011;62414;53.436;8.828;2023-05-07T04:49:27;15.13;;;7.32;;
74059;SDS011;62414;53.436;8.828;2023-05-07T04:51:54;15.68;;;7.30;;
74059;SDS011;62414;53.436;8.828;2023-05-07T04:54:21;17.33;;;8.10;;
74059;SDS011;62414;53.436;8.828;2023-05-07T04:56:47;15.53;;;7.73;;
74059;SDS011;62414;53.436;8.828;2023-05-07T04:59:13;16.67;;;8.00;;
74059;SDS011;62414;53.436;8.828;2023-05-07T05:01:38;16.13;;;7.67;;
74059;SDS011;62414;53.436;8.828;2023-05-07T05:04:05;15.95;;;7.90;;
74059;SDS011;62414;53.436;8.828;2023-05-07T05:06:32;15.77;;;8.00;;
74059;SDS011;62414;53.436;8.828;2023-05-07T05:09:00;18.02;;;8.30;;
74059;SDS011;62414;53.436;8.828;2023-05-07T05:11:27;17.00;;;8.95;;
74059;SDS011;62414;53.436;8.828;2023-05-07T05:13:53;16.73;;;8.17;;
74059;SDS011;62414;53.436;8.828;2023-05-07T05:16:20;15.55;;;7.88;;
74059;SDS011;62414;53.436;8.828;2023-05-07T05:18:46;15.82;;;8.07;;
74059;SDS011;62414;53.436;8.828;2023-05-07T05:21:14;16.20;;;8.35;;
74059;SDS011;62414;53.436;8.828;2023-05-07T05:23:43;16.30;;;8.23;;
74059;SDS011;62414;53.436;8.828;2023-05-07T05:26:09;17.67;;;8.37;;
74059;SDS011;62414;53.436;8.828;2023-05-07T05:28:34;17.52;;;8.50;;
74059;SDS011;62414;53.436;8.828;2023-05-07T05:31:01;17.13;;;8.32;;
74059;SDS011;62414;53.436;8.828;2023-05-07T05:33:31;18.58;;;9.95;;
74059;SDS011;62414;53.436;8.828;2023-05-07T05:36:01;16.85;;;8.45;;
74059;SDS011;62414;53.436;8.828;2023-05-07T05:38:27;17.73;;;9.07;;
74059;SDS011;62414;53.436;8.828;2023-05-07T05:40:54;16.65;;;8.15;;
74059;SDS011;62414;53.436;8.828;2023-05-07T05:43:20;14.90;;;7.93;;
74059;SDS011;62414;53.436;8.828;2023-05-07T05:45:46;16.23;;;8.43;;
74059;SDS011;62414;53.436;8.828;2023-05-07T05:48:12;15.73;;;7.80;;
74059;SDS011;62414;53.436;8.828;2023-05-07T05:50:38;15.97;;;8.03;;
74059;SDS011;62414;53.436;8.828;2023-05-07T05:53:05;14.73;;;7.90;;
74059;SDS011;62414;53.436;8.828;2023-05-07T05:55:32;15.20;;;7.93;;
74059;SDS011;62414;53.436;8.828;2023-05-07T05:57:59;15.57;;;8.10;;
74059;SDS011;62414;53.436;8.828;2023-05-07T06:00:25;15.50;;;8.20;;
74059;SDS011;62414;53.436;8.828;2023-05-07T06:02:58;14.48;;;7.55;;
74059;SDS011;62414;53.436;8.828;2023-05-07T06:05:25;14.77;;;7.60;;
74059;SDS011;62414;53.436;8.828;2023-05-07T06:07:52;14.30;;;7.50;;
74059;SDS011;62414;53.436;8.828;2023-05-07T06:10:18;14.60;;;7.30;;
74059;SDS011;62414;53.436;8.828;2023-05-07T06:12:44;15.02;;;7.72;;
74059;SDS011;62414;53.436;8.828;2023-05-07T06:15:11;14.60;;;7.83;;
74059;SDS011;62414;53.436;8.828;2023-05-07T06:17:37;14.85;;;8.18;;
74059;SDS011;62414;53.436;8.828;2023-05-07T06:20:03;15.63;;;7.73;;
74059;SDS011;62414;53.436;8.828;2023-05-07T06:22:29;14.10;;;7.55;;
74059;SDS011;62414;53.436;8.828;2023-05-07T06:24:54;14.60;;;7.78;;
74059;SDS011;62414;53.436;8.828;2023-05-07T06:27:20;15.57;;;7.67;;
74059;SDS011;62414;53.436;8.828;2023-05-07T06:29:47;15.23;;;8.02;;
74059;SDS011;62414;53.436;8.828;2023-05-07T06:32:15;13.45;;;7.88;;
74059;SDS011;62414;53.436;8.828;2023-05-07T06:34:43;14.55;;;8.25;;
74059;SDS011;62414;53.436;8.828;2023-05-07T06:37:08;15.13;;;8.13;;
74059;SDS011;62414;53.436;8.828;2023-05-07T06:39:47;15.70;;;8.52;;
74059;SDS011;62414;53.436;8.828;2023-05-07T06:42:12;15.57;;;8.63;;
74059;SDS011;62414;53.436;8.828;2023-05-07T06:44:41;14.77;;;8.02;;
74059;SDS011;62414;53.436;8.828;2023-05-07T06:47:10;15.68;;;8.10;;
74059;SDS011;62414;53.436;8.828;2023-05-07T06:49:39;16.55;;;8.55;;
74059;SDS011;62414;53.436;8.828;2023-05-07T06:52:04;15.37;;;8.40;;
74059;SDS011;62414;53.436;8.828;2023-05-07T06:54:30;15.00;;;8.20;;
74059;SDS011;62414;53.436;8.828;2023-05-07T06:56:57;16.10;;;8.48;;
74059;SDS011;62414;53.436;8.828;2023-05-07T06:59:24;16.17;;;8.50;;
74059;SDS011;62414;53.436;8.828;2023-05-07T07:01:50;14.97;;;7.93;;
74059;SDS011;62414;53.436;8.828;2023-05-07T07:04:16;14.77;;;7.93;;
74059;SDS011;62414;53.436;8.828;2023-05-07T07:06:46;13.52;;;7.18;;
74059;SDS011;62414;53.436;8.828;2023-05-07T07:09:13;14.35;;;7.95;;
74059;SDS011;62414;53.436;8.828;2023-05-07T07:11:39;14.97;;;7.90;;
74059;SDS011;62414;53.436;8.828;2023-05-07T07:14:05;13.32;;;7.45;;
74059;SDS011;62414;53.436;8.828;2023-05-07T07:16:34;14.27;;;7.72;;
74059;SDS011;62414;53.436;8.828;2023-05-07T07:19:00;13.77;;;7.55;;
74059;SDS011;62414;53.436;8.828;2023-05-07T07:21:26;13.93;;;7.65;;
74059;SDS011;62414;53.436;8.828;2023-05-07T07:23:54;14.57;;;7.67;;
74059;SDS011;62414;53.436;8.828;2023-05-07T07:26:20;13.68;;;7.35;;
74059;SDS011;62414;53.436;8.828;2023-05-07T07:28:46;16.23;;;7.80;;
74059;SDS011;62414;53.436;8.828;2023-05-07T07:31:16;13.93;;;7.50;;
74059;SDS011;62414;53.436;8.828;2023-05-07T07:33:41;14.77;;;8.00;;
74059;SDS011;62414;53.436;8.828;2023-05-07T07:36:07;18.03;;;7.50;;
74059;SDS011;62414;53.436;8.828;2023-05-07T07:38:33;13.65;;;7.20;;
74059;SDS011;62414;53.436;8.828;2023-05-07T07:41:00;15.40;;;7.63;;
74059;SDS011;62414;53.436;8.828;2023-05-07T07:43:25;14.05;;;7.43;;
74059;SDS011;62414;53.436;8.828;2023-05-07T07:45:52;12.43;;;6.88;;
74059;SDS011;62414;53.436;8.828;2023-05-07T07:48:18;13.35;;;7.35;;
74059;SDS011;62414;53.436;8.828;2023-05-07T07:50:44;14.35;;;7.63;;
74059;SDS011;62414;53.436;8.828;2023-05-07T07:53:12;14.37;;;7.53;;
74059;SDS011;62414;53.436;8.828;2023-05-07T07:55:38;16.08;;;8.32;;
74059;SDS011;62414;53.436;8.828;2023-05-07T07:58:05;14.15;;;7.60;;
74059;SDS011;62414;53.436;8.828;2023-05-07T08:00:31;15.30;;;7.82;;
74059;SDS011;62414;53.436;8.828;2023-05-07T08:02:58;15.40;;;8.20;;
74059;SDS011;62414;53.436;8.828;2023-05-07T08:05:28;15.40;;;7.82;;
74059;SDS011;62414;53.436;8.828;2023-05-07T08:07:54;13.65;;;7.38;;
74059;SDS011;62414;53.436;8.828;2023-05-07T08:10:25;14.52;;;8.00;;
74059;SDS011;62414;53.436;8.828;2023-05-07T08:12:56;15.13;;;7.50;;
74059;SDS011;62414;53.436;8.828;2023-05-07T08:15:23;15.85;;;7.70;;
74059;SDS011;62414;53.436;8.828;2023-05-07T08:17:49;14.65;;;7.30;;
74059;SDS011;62414;53.436;8.828;2023-05-07T08:20:15;15.63;;;7.97;;
74059;SDS011;62414;53.436;8.828;2023-05-07T08:22:41;16.35;;;7.90;;
74059;SDS011;62414;53.436;8.828;2023-05-07T08:25:07;15.33;;;7.73;;
74059;SDS011;62414;53.436;8.828;2023-05-07T08:27:33;15.60;;;8.20;;
74059;SDS011;62414;53.436;8.828;2023-05-07T08:29:59;14.50;;;8.20;;
74059;SDS011;62414;53.436;8.828;2023-05-07T08:32:26;14.17;;;7.73;;
74059;SDS011;62414;53.436;8.828;2023-05-07T08:34:52;16.15;;;8.00;;
74059;SDS011;62414;53.436;8.828;2023-05-07T08:37:18;17.50;;;7.90;;
74059;SDS011;62414;53.436;8.828;2023-05-07T08:39:44;15.35;;;8.02;;
74059;SDS011;62414;53.436;8.828;2023-05-07T08:42:18;15.43;;;7.80;;
74059;SDS011;62414;53.436;8.828;2023-05-07T08:44:46;15.20;;;8.13;;
74059;SDS011;62414;53.436;8.828;2023-05-07T08:47:11;13.17;;;7.23;;
74059;SDS011;62414;53.436;8.828;2023-05-07T08:49:39;13.45;;;7.28;;
74059;SDS011;62414;53.436;8.828;2023-05-07T08:52:06;13.65;;;7.10;;
74059;SDS011;62414;53.436;8.828;2023-05-07T08:54:31;12.70;;;6.70;;
74059;SDS011;62414;53.436;8.828;2023-05-07T08:56:58;13.40;;;7.35;;
74059;SDS011;62414;53.436;8.828;2023-05-07T08:59:23;16.83;;;7.57;;
74059;SDS011;62414;53.436;8.828;2023-05-07T09:01:49;13.73;;;7.30;;
74059;SDS011;62414;53.436;8.828;2023-05-07T09:04:15;13.52;;;7.10;;
74059;SDS011;62414;53.436;8.828;2023-05-07T09:06:43;13.45;;;7.28;;
74059;SDS011;62414;53.436;8.828;2023-05-07T09:09:12;13.17;;;7.00;;
74059;SDS011;62414;53.436;8.828;2023-05-07T09:11:39;11.30;;;6.50;;
74059;SDS011;62414;53.436;8.828;2023-05-07T09:14:05;13.20;;;6.95;;
74059;SDS011;62414;53.436;8.828;2023-05-07T09:16:36;13.70;;;7.27;;
74059;SDS011;62414;53.436;8.828;2023-05-07T09:19:02;11.73;;;6.82;;
74059;SDS011;62414;53.436;8.828;2023-05-07T09:21:28;12.50;;;6.70;;
74059;SDS011;62414;53.436;8.828;2023-05-07T09:23:57;12.13;;;6.70;;
74059;SDS011;62414;53.436;8.828;2023-05-07T09:26:30;12.00;;;6.87;;
74059;SDS011;62414;53.436;8.828;2023-05-07T09:28:56;12.77;;;6.82;;
74059;SDS011;62414;53.436;8.828;2023-05-07T09:31:21;12.30;;;6.80;;
74059;SDS011;62414;53.436;8.828;2023-05-07T09:33:47;13.43;;;6.97;;
74059;SDS011;62414;53.436;8.828;2023-05-07T09:36:13;11.47;;;6.30;;
74059;SDS011;62414;53.436;8.828;2023-05-07T09:38:40;13.40;;;7.00;;
74059;SDS011;62414;53.436;8.828;2023-05-07T09:41:08;14.10;;;7.25;;
74059;SDS011;62414;53.436;8.828;2023-05-07T09:43:54;13.35;;;7.07;;
74059;SDS011;62414;53.436;8.828;2023-05-07T09:46:24;12.00;;;6.80;;
74059;SDS011;62414;53.436;8.828;2023-05-07T09:48:52;13.07;;;7.07;;
74059;SDS011;62414;53.436;8.828;2023-05-07T09:51:24;12.85;;;6.82;;
74059;SDS011;62414;53.436;8.828;2023-05-07T09:53:50;12.07;;;6.63;;
74059;SDS011;62414;53.436;8.828;2023-05-07T09:56:19;13.80;;;7.13;;
74059;SDS011;62414;53.436;8.828;2023-05-07T09:58:45;13.73;;;7.33;;
74059;SDS011;62414;53.436;8.828;2023-05-07T10:01:12;12.50;;;6.70;;
74059;SDS011;62414;53.436;8.828;2023-05-07T10:03:40;13.68;;;7.43;;
74059;SDS011;62414;53.436;8.828;2023-05-07T10:06:06;13.88;;;7.07;;
74059;SDS011;62414;53.436;8.828;2023-05-07T10:08:32;13.48;;;6.95;;
74059;SDS011;62414;53.436;8.828;2023-05-07T10:11:00;13.03;;;7.27;;
74059;SDS011;62414;53.436;8.828;2023-05-07T10:13:29;14.05;;;6.68;;
74059;SDS011;62414;53.436;8.828;2023-05-07T10:15:57;15.27;;;7.07;;
74059;SDS011;62414;53.436;8.828;2023-05-07T10:18:25;14.50;;;7.07;;
74059;SDS011;62414;53.436;8.828;2023-05-07T10:20:52;11.90;;;6.93;;
74059;SDS011;62414;53.436;8.828;2023-05-07T10:23:21;12.27;;;6.77;;
74059;SDS011;62414;53.436;8.828;2023-05-07T10:25:49;13.25;;;7.10;;
74059;SDS011;62414;53.436;8.828;2023-05-07T10:28:20;13.93;;;7.35;;
74059;SDS011;62414;53.436;8.828;2023-05-07T10:30:53;13.98;;;7.30;;
74059;SDS011;62414;53.436;8.828;2023-05-07T10:33:26;12.05;;;6.05;;
74059;SDS011;62414;53.436;8.828;2023-05-07T10:35:55;11.23;;;6.60;;
74059;SDS011;62414;53.436;8.828;2023-05-07T10:38:23;11.98;;;6.65;;
74059;SDS011;62414;53.436;8.828;2023-05-07T10:40:48;15.90;;;7.20;;
74059;SDS011;62414;53.436;8.828;2023-05-07T10:43:17;12.73;;;6.50;;
74059;SDS011;62414;53.436;8.828;2023-05-07T10:46:10;11.88;;;6.65;;
74059;SDS011;62414;53.436;8.828;2023-05-07T10:51:44;12.07;;;6.28;;
74059;SDS011;62414;53.436;8.828;2023-05-07T10:54:23;11.05;;;6.05;;
74059;SDS011;62414;53.436;8.828;2023-05-07T10:56:55;10.90;;;6.27;;
74059;SDS011;62414;53.436;8.828;2023-05-07T10:59:32;10.75;;;5.57;;
74059;SDS011;62414;53.436;8.828;2023-05-07T11:02:15;11.55;;;6.03;;
74059;SDS011;62414;53.436;8.828;2023-05-07T11:07:44;10.70;;;6.07;;
74059;SDS011;62414;53.436;8.828;2023-05-07T11:10:19;9.47;;;5.73;;
74059;SDS011;62414;53.436;8.828;2023-05-07T11:12:57;10.13;;;6.00;;
74059;SDS011;62414;53.436;8.828;2023-05-07T11:15:36;12.38;;;6.50;;
74059;SDS011;62414;53.436;8.828;2023-05-07T11:18:17;10.45;;;5.97;;
74059;SDS011;62414;53.436;8.828;2023-05-07T11:20:54;9.27;;;5.70;;
74059;SDS011;62414;53.436;8.828;2023-05-07T11:26:51;10.43;;;5.80;;
74059;SDS011;62414;53.436;8.828;2023-05-07T11:29:19;9.73;;;5.60;;
74059;SDS011;62414;53.436;8.828;2023-05-07T11:31:48;9.50;;;5.63;;
74059;SDS011;62414;53.436;8.828;2023-05-07T11:34:15;11.50;;;6.05;;
74059;SDS011;62414;53.436;8.828;2023-05-07T11:36:46;10.27;;;6.20;;
74059;SDS011;62414;53.436;8.828;2023-05-07T11:39:29;10.50;;;5.65;;
74059;SDS011;62414;53.436;8.828;2023-05-07T11:41:55;10.35;;;5.93;;
74059;SDS011;62414;53.436;8.828;2023-05-07T11:44:21;10.07;;;5.80;;
74059;SDS011;62414;53.436;8.828;2023-05-07T11:46:46;10.52;;;5.72;;
74059;SDS011;62414;53.436;8.828;2023-05-07T11:49:12;10.20;;;5.50;;
74059;SDS011;62414;53.436;8.828;2023-05-07T11:51:39;9.50;;;5.90;;
74059;SDS011;62414;53.436;8.828;2023-05-07T11:54:04;10.15;;;5.82;;
74059;SDS011;62414;53.436;8.828;2023-05-07T11:56:33;9.15;;;5.70;;
74059;SDS011;62414;53.436;8.828;2023-05-07T11:58:59;11.03;;;5.73;;
74059;SDS011;62414;53.436;8.828;2023-05-07T12:01:24;9.52;;;5.80;;
74059;SDS011;62414;53.436;8.828;2023-05-07T12:03:50;10.27;;;5.90;;
74059;SDS011;62414;53.436;8.828;2023-05-07T12:06:15;9.40;;;6.03;;
74059;SDS011;62414;53.436;8.828;2023-05-07T12:08:43;9.95;;;5.93;;
74059;SDS011;62414;53.436;8.828;2023-05-07T12:11:12;8.70;;;5.45;;
74059;SDS011;62414;53.436;8.828;2023-05-07T12:13:38;9.57;;;5.63;;
74059;SDS011;62414;53.436;8.828;2023-05-07T12:16:05;11.93;;;5.70;;
74059;SDS011;62414;53.436;8.828;2023-05-07T12:18:31;10.77;;;6.00;;
74059;SDS011;62414;53.436;8.828;2023-05-07T12:20:56;9.87;;;6.00;;
74059;SDS011;62414;53.436;8.828;2023-05-07T12:23:22;10.35;;;6.03;;
74059;SDS011;62414;53.436;8.828;2023-05-07T12:25:49;9.88;;;5.55;;
74059;SDS011;62414;53.436;8.828;2023-05-07T12:28:15;9.75;;;5.32;;
74059;SDS011;62414;53.436;8.828;2023-05-07T12:30:42;7.87;;;4.87;;
74059;SDS011;62414;53.436;8.828;2023-05-07T12:33:08;8.80;;;5.47;;
74059;SDS011;62414;53.436;8.828;2023-05-07T12:35:36;7.77;;;4.80;;
74059;SDS011;62414;53.436;8.828;2023-05-07T12:38:02;8.15;;;4.85;;
74059;SDS011;62414;53.436;8.828;2023-05-07T12:40:35;9.63;;;4.87;;
74059;SDS011;62414;53.436;8.828;2023-05-07T12:43:02;8.27;;;4.77;;
74059;SDS011;62414;53.436;8.828;2023-05-07T12:45:28;8.32;;;4.78;;
74059;SDS011;62414;53.436;8.828;2023-05-07T12:47:53;9.93;;;5.17;;
74059;SDS011;62414;53.436;8.828;2023-05-07T12:50:19;10.00;;;5.53;;
74059;SDS011;62414;53.436;8.828;2023-05-07T12:52:48;7.73;;;5.07;;
74059;SDS011;62414;53.436;8.828;2023-05-07T12:55:14;8.43;;;5.00;;
74059;SDS011;62414;53.436;8.828;2023-05-07T12:57:40;7.85;;;4.75;;
74059;SDS011;62414;53.436;8.828;2023-05-07T13:00:08;9.38;;;5.05;;
74059;SDS011;62414;53.436;8.828;2023-05-07T13:02:37;8.30;;;5.20;;
74059;SDS011;62414;53.436;8.828;2023-05-07T13:05:03;7.53;;;4.90;;
74059;SDS011;62414;53.436;8.828;2023-05-07T13:07:29;8.57;;;5.20;;
74059;SDS011;62414;53.436;8.828;2023-05-07T13:09:54;7.53;;;4.60;;
74059;SDS011;62414;53.436;8.828;2023-05-07T13:12:19;11.37;;;5.20;;
74059;SDS011;62414;53.436;8.828;2023-05-07T13:14:45;7.25;;;4.70;;
74059;SDS011;62414;53.436;8.828;2023-05-07T13:17:12;8.90;;;5.17;;
74059;SDS011;62414;53.436;8.828;2023-05-07T13:19:37;8.15;;;5.30;;
74059;SDS011;62414;53.436;8.828;2023-05-07T13:22:03;10.03;;;4.73;;
74059;SDS011;62414;53.436;8.828;2023-05-07T13:24:28;8.67;;;4.70;;
74059;SDS011;62414;53.436;8.828;2023-05-07T13:26:54;8.60;;;4.90;;
74059;SDS011;62414;53.436;8.828;2023-05-07T13:29:19;25.07;;;5.70;;
74059;SDS011;62414;53.436;8.828;2023-05-07T13:31:44;45.37;;;6.10;;
74059;SDS011;62414;53.436;8.828;2023-05-07T13:34:11;21.83;;;5.60;;
74059;SDS011;62414;53.436;8.828;2023-05-07T13:36:37;12.82;;;4.70;;
74059;SDS011;62414;53.436;8.828;2023-05-07T13:39:02;9.83;;;4.90;;
74059;SDS011;62414;53.436;8.828;2023-05-07T13:41:28;7.22;;;4.70;;
74059;SDS011;62414;53.436;8.828;2023-05-07T13:43:53;7.97;;;4.70;;
74059;SDS011;62414;53.436;8.828;2023-05-07T13:46:19;6.40;;;4.57;;
74059;SDS011;62414;53.436;8.828;2023-05-07T13:48:44;7.77;;;5.20;;
74059;SDS011;62414;53.436;8.828;2023-05-07T13:51:11;7.18;;;4.90;;
74059;SDS011;62414;53.436;8.828;2023-05-07T13:53:36;6.60;;;4.70;;
74059;SDS011;62414;53.436;8.828;2023-05-07T13:56:02;8.38;;;4.70;;
74059;SDS011;62414;53.436;8.828;2023-05-07T13:58:28;7.57;;;4.70;;
74059;SDS011;62414;53.436;8.828;2023-05-07T14:00:53;7.60;;;5.10;;
74059;SDS011;62414;53.436;8.828;2023-05-07T14:03:18;10.02;;;5.10;;
74059;SDS011;62414;53.436;8.828;2023-05-07T14:05:44;7.87;;;5.03;;
74059;SDS011;62414;53.436;8.828;2023-05-07T14:08:11;8.67;;;4.70;;
74059;SDS011;62414;53.436;8.828;2023-05-07T14:10:36;6.70;;;4.85;;
74059;SDS011;62414;53.436;8.828;2023-05-07T14:13:01;7.60;;;5.07;;
74059;SDS011;62414;53.436;8.828;2023-05-07T14:15:27;8.13;;;4.85;;
74059;SDS011;62414;53.436;8.828;2023-05-07T14:17:52;8.23;;;4.90;;
74059;SDS011;62414;53.436;8.828;2023-05-07T14:20:18;7.47;;;4.80;;
74059;SDS011;62414;53.436;8.828;2023-05-07T14:22:43;6.97;;;4.60;;
74059;SDS011;62414;53.436;8.828;2023-05-07T14:25:10;7.87;;;4.47;;
74059;SDS011;62414;53.436;8.828;2023-05-07T14:27:35;7.63;;;4.95;;
74059;SDS011;62414;53.436;8.828;2023-05-07T14:30:01;7.70;;;5.30;;
74059;SDS011;62414;53.436;8.828;2023-05-07T14:32:26;6.47;;;4.50;;
74059;SDS011;62414;53.436;8.828;2023-05-07T14:34:52;7.55;;;4.72;;
74059;SDS011;62414;53.436;8.828;2023-05-07T14:37:17;7.33;;;5.07;;
74059;SDS011;62414;53.436;8.828;2023-05-07T14:39:43;9.83;;;4.93;;
74059;SDS011;62414;53.436;8.828;2023-05-07T14:42:09;7.03;;;4.95;;